sensor_id;sensor_type;location;lat;lon;timestamp;temperature;humidity
44843;DHT22;31884;52.538;13.820;2024-01-15T00:02:08;2.50;99.90
44843;DHT22;31884;52.538;13.820;2024-01-15T00:04:39;2.50;99.90
44843;DHT22;31884;52.538;13.820;2024-01-15T00:07:06;2.50;99.90
44843;DHT22;31884;52.538;13.820;2024-01-15T00:09:31;2.50;99.90
44843;DHT22;31884;52.538;13.820;2024-01-15T00:11:57;2.50;99.90
44843;DHT22;31884;52.538;13.820;2024-01-15T00:14:23;2.50;99.90
44843;DHT22;31884;52.538;13.820;2024-01-15T00:16:48;2.50;99.90
44843;DHT22;31884;52.538;13.820;2024-01-15T00:19:16;2.40;99.90
44843;DHT22;31884;52.538;13.820;2024-01-15T00:21:42;2.40;99.90
44843;DHT22;31884;52.538;13.820;2024-01-15T00:24:08;2.40;99.90
44843;DHT22;31884;52.538;13.820;2024-01-15T00:26:33;2.40;99.90
44843;DHT22;31884;52.538;13.820;2024-01-15T00:28:59;2.40;99.90
44843;DHT22;31884;52.538;13.820;2024-01-15T00:31:24;2.40;99.90
44843;DHT22;31884;52.538;13.820;2024-01-15T00:33:49;2.40;99.90
44843;DHT22;31884;52.538;13.820;2024-01-15T00:36:15;2.30;99.90
44843;DHT22;31884;52.538;13.820;2024-01-15T00:38:42;2.30;99.90
44843;DHT22;31884;52.538;13.820;2024-01-15T00:41:07;2.30;99.90
44843;DHT22;31884;52.538;13.820;2024-01-15T00:43:33;2.30;99.90
44843;DHT22;31884;52.538;13.820;2024-01-15T00:46:02;2.30;99.90
44843;DHT22;31884;52.538;13.820;2024-01-15T00:48:27;2.30;99.90
44843;DHT22;31884;52.538;13.820;2024-01-15T00:50:53;2.20;99.90
44843;DHT22;31884;52.538;13.820;2024-01-15T00:53:19;2.20;99.90
44843;DHT22;31884;52.538;13.820;2024-01-15T00:55:47;2.20;99.90
44843;DHT22;31884;52.538;13.820;2024-01-15T00:58:13;2.20;99.90
44843;DHT22;31884;52.538;13.820;2024-01-15T01:00:38;2.20;99.90
44843;DHT22;31884;52.538;13.820;2024-01-15T01:03:04;2.20;99.90
44843;DHT22;31884;52.538;13.820;2024-01-15T01:05:29;2.20;99.90
44843;DHT22;31884;52.538;13.820;2024-01-15T01:07:55;2.20;99.90
44843;DHT22;31884;52.538;13.820;2024-01-15T01:10:20;2.20;99.90
44843;DHT22;31884;52.538;13.820;2024-01-15T01:12:46;2.20;99.90
44843;DHT22;31884;52.538;13.820;2024-01-15T01:15:11;2.20;99.90
44843;DHT22;31884;52.538;13.820;2024-01-15T01:17:37;2.20;99.90
44843;DHT22;31884;52.538;13.820;2024-01-15T01:20:03;2.20;99.90
44843;DHT22;31884;52.538;13.820;2024-01-15T01:22:31;2.20;99.90
44843;DHT22;31884;52.538;13.820;2024-01-15T01:24:56;2.10;99.90
44843;DHT22;31884;52.538;13.820;2024-01-15T01:27:22;2.10;99.90
44843;DHT22;31884;52.538;13.820;2024-01-15T01:29:47;2.10;99.90
44843;DHT22;31884;52.538;13.820;2024-01-15T01:32:13;2.10;99.90
44843;DHT22;31884;52.538;13.820;2024-01-15T01:34:41;2.10;99.90
44843;DHT22;31884;52.538;13.820;2024-01-15T01:37:10;2.10;99.90
44843;DHT22;31884;52.538;13.820;2024-01-15T01:39:40;2.00;99.90
44843;DHT22;31884;52.538;13.820;2024-01-15T01:42:05;2.00;99.90
44843;DHT22;31884;52.538;13.820;2024-01-15T01:44:31;1.90;99.90
44843;DHT22;31884;52.538;13.820;2024-01-15T01:46:58;1.90;99.90
44843;DHT22;31884;52.538;13.820;2024-01-15T01:49:25;1.90;99.90
44843;DHT22;31884;52.538;13.820;2024-01-15T01:51:51;1.90;99.90
44843;DHT22;31884;52.538;13.820;2024-01-15T01:54:18;1.90;99.90
44843;DHT22;31884;52.538;13.820;2024-01-15T01:56:44;1.90;99.90
44843;DHT22;31884;52.538;13.820;2024-01-15T01:59:11;1.90;99.90
44843;DHT22;31884;52.538;13.820;2024-01-15T02:01:37;1.90;99.90
44843;DHT22;31884;52.538;13.820;2024-01-15T02:04:03;1.90;99.90
44843;DHT22;31884;52.538;13.820;2024-01-15T02:06:29;1.90;99.90
44843;DHT22;31884;52.538;13.820;2024-01-15T02:08:55;1.90;99.90
44843;DHT22;31884;52.538;13.820;2024-01-15T02:11:21;1.90;99.90
44843;DHT22;31884;52.538;13.820;2024-01-15T02:13:46;1.90;99.90
44843;DHT22;31884;52.538;13.820;2024-01-15T02:16:12;1.90;99.90
44843;DHT22;31884;52.538;13.820;2024-01-15T02:18:44;2.00;99.90
44843;DHT22;31884;52.538;13.820;2024-01-15T02:21:10;1.90;99.90
44843;DHT22;31884;52.538;13.820;2024-01-15T02:23:37;1.90;99.90
44843;DHT22;31884;52.538;13.820;2024-01-15T02:26:03;1.90;99.90
44843;DHT22;31884;52.538;13.820;2024-01-15T02:28:29;1.90;99.90
44843;DHT22;31884;52.538;13.820;2024-01-15T02:30:55;1.80;99.90
44843;DHT22;31884;52.538;13.820;2024-01-15T02:33:21;1.80;99.90
44843;DHT22;31884;52.538;13.820;2024-01-15T02:35:46;1.80;99.90
44843;DHT22;31884;52.538;13.820;2024-01-15T02:38:15;1.80;99.90
44843;DHT22;31884;52.538;13.820;2024-01-15T02:40:41;1.80;99.90
44843;DHT22;31884;52.538;13.820;2024-01-15T02:43:06;1.80;99.90
44843;DHT22;31884;52.538;13.820;2024-01-15T02:45:32;1.80;99.90
44843;DHT22;31884;52.538;13.820;2024-01-15T02:47:57;1.80;99.90
44843;DHT22;31884;52.538;13.820;2024-01-15T02:50:23;1.80;99.90
44843;DHT22;31884;52.538;13.820;2024-01-15T02:52:48;1.80;99.90
44843;DHT22;31884;52.538;13.820;2024-01-15T02:55:14;1.80;99.90
44843;DHT22;31884;52.538;13.820;2024-01-15T02:57:39;1.80;99.90
44843;DHT22;31884;52.538;13.820;2024-01-15T03:00:05;1.80;99.90
44843;DHT22;31884;52.538;13.820;2024-01-15T03:02:32;1.80;99.90
44843;DHT22;31884;52.538;13.820;2024-01-15T03:04:58;1.80;99.90
44843;DHT22;31884;52.538;13.820;2024-01-15T03:07:23;1.70;99.90
44843;DHT22;31884;52.538;13.820;2024-01-15T03:09:49;1.70;99.90
44843;DHT22;31884;52.538;13.820;2024-01-15T03:12:15;1.70;99.90
44843;DHT22;31884;52.538;13.820;2024-01-15T03:14:40;1.70;99.90
44843;DHT22;31884;52.538;13.820;2024-01-15T03:17:06;1.80;99.90
44843;DHT22;31884;52.538;13.820;2024-01-15T03:19:35;1.80;99.90
44843;DHT22;31884;52.538;13.820;2024-01-15T03:22:00;1.80;99.90
44843;DHT22;31884;52.538;13.820;2024-01-15T03:24:28;1.80;99.90
44843;DHT22;31884;52.538;13.820;2024-01-15T03:26:53;1.80;99.90
44843;DHT22;31884;52.538;13.820;2024-01-15T03:29:18;1.90;99.90
44843;DHT22;31884;52.538;13.820;2024-01-15T03:31:44;1.90;99.90
44843;DHT22;31884;52.538;13.820;2024-01-15T03:34:10;1.90;99.90
44843;DHT22;31884;52.538;13.820;2024-01-15T03:36:35;1.90;99.90
44843;DHT22;31884;52.538;13.820;2024-01-15T03:39:01;1.90;99.90
44843;DHT22;31884;52.538;13.820;2024-01-15T03:41:26;1.90;99.90
44843;DHT22;31884;52.538;13.820;2024-01-15T03:43:51;1.90;99.90
44843;DHT22;31884;52.538;13.820;2024-01-15T03:46:17;1.90;99.90
44843;DHT22;31884;52.538;13.820;2024-01-15T03:48:42;1.90;99.90
44843;DHT22;31884;52.538;13.820;2024-01-15T03:51:08;1.90;99.90
44843;DHT22;31884;52.538;13.820;2024-01-15T03:53:33;1.90;99.90
44843;DHT22;31884;52.538;13.820;2024-01-15T03:55:59;1.90;99.90
44843;DHT22;31884;52.538;13.820;2024-01-15T03:58:24;1.90;99.90
44843;DHT22;31884;52.538;13.820;2024-01-15T04:00:50;1.90;99.90
44843;DHT22;31884;52.538;13.820;2024-01-15T04:03:15;1.90;99.90
44843;DHT22;31884;52.538;13.820;2024-01-15T04:05:41;1.90;99.90
44843;DHT22;31884;52.538;13.820;2024-01-15T04:08:06;1.90;99.90
44843;DHT22;31884;52.538;13.820;2024-01-15T04:10:32;2.00;99.90
44843;DHT22;31884;52.538;13.820;2024-01-15T04:12:57;1.90;99.90
44843;DHT22;31884;52.538;13.820;2024-01-15T04:15:25;1.90;99.90
44843;DHT22;31884;52.538;13.820;2024-01-15T04:17:50;1.90;99.90
44843;DHT22;31884;52.538;13.820;2024-01-15T04:20:16;2.00;99.90
44843;DHT22;31884;52.538;13.820;2024-01-15T04:22:41;2.00;99.90
44843;DHT22;31884;52.538;13.820;2024-01-15T04:25:07;1.90;99.90
44843;DHT22;31884;52.538;13.820;2024-01-15T04:27:32;2.00;99.90
44843;DHT22;31884;52.538;13.820;2024-01-15T04:29:58;2.00;99.90
44843;DHT22;31884;52.538;13.820;2024-01-15T04:32:23;2.00;99.90
44843;DHT22;31884;52.538;13.820;2024-01-15T04:34:49;2.00;99.90
44843;DHT22;31884;52.538;13.820;2024-01-15T04:37:14;2.10;99.90
44843;DHT22;31884;52.538;13.820;2024-01-15T04:39:40;2.10;99.90
44843;DHT22;31884;52.538;13.820;2024-01-15T04:42:05;2.10;99.90
44843;DHT22;31884;52.538;13.820;2024-01-15T04:44:31;2.10;99.90
44843;DHT22;31884;52.538;13.820;2024-01-15T04:46:56;2.10;99.90
44843;DHT22;31884;52.538;13.820;2024-01-15T04:49:22;2.10;99.90
44843;DHT22;31884;52.538;13.820;2024-01-15T04:51:47;2.20;99.90
44843;DHT22;31884;52.538;13.820;2024-01-15T04:54:13;2.10;99.90
44843;DHT22;31884;52.538;13.820;2024-01-15T04:56:43;2.20;99.90
44843;DHT22;31884;52.538;13.820;2024-01-15T04:59:08;2.10;99.90
44843;DHT22;31884;52.538;13.820;2024-01-15T05:01:34;2.20;99.90
44843;DHT22;31884;52.538;13.820;2024-01-15T05:03:59;2.20;99.90
44843;DHT22;31884;52.538;13.820;2024-01-15T05:06:25;2.20;99.90
44843;DHT22;31884;52.538;13.820;2024-01-15T05:08:50;2.20;99.90
44843;DHT22;31884;52.538;13.820;2024-01-15T05:11:16;2.20;99.90
44843;DHT22;31884;52.538;13.820;2024-01-15T05:13:41;2.20;99.90
44843;DHT22;31884;52.538;13.820;2024-01-15T05:16:07;2.20;99.90
44843;DHT22;31884;52.538;13.820;2024-01-15T05:18:32;2.20;99.90
44843;DHT22;31884;52.538;13.820;2024-01-15T05:20:58;2.20;99.90
44843;DHT22;31884;52.538;13.820;2024-01-15T05:23:23;2.30;99.90
44843;DHT22;31884;52.538;13.820;2024-01-15T05:25:49;2.30;99.90
44843;DHT22;31884;52.538;13.820;2024-01-15T05:28:14;2.30;99.90
44843;DHT22;31884;52.538;13.820;2024-01-15T05:30:40;2.30;99.90
44843;DHT22;31884;52.538;13.820;2024-01-15T05:33:06;2.30;99.90
44843;DHT22;31884;52.538;13.820;2024-01-15T05:35:33;2.30;99.90
44843;DHT22;31884;52.538;13.820;2024-01-15T05:37:58;2.30;99.90
44843;DHT22;31884;52.538;13.820;2024-01-15T05:40:23;2.30;99.90
44843;DHT22;31884;52.538;13.820;2024-01-15T05:42:49;2.30;99.90
44843;DHT22;31884;52.538;13.820;2024-01-15T05:45:15;2.30;99.90
44843;DHT22;31884;52.538;13.820;2024-01-15T05:47:40;2.40;99.90
44843;DHT22;31884;52.538;13.820;2024-01-15T05:50:06;2.30;99.90
44843;DHT22;31884;52.538;13.820;2024-01-15T05:52:32;2.20;99.90
44843;DHT22;31884;52.538;13.820;2024-01-15T05:54:57;2.20;99.90
44843;DHT22;31884;52.538;13.820;2024-01-15T05:57:23;2.20;99.90
44843;DHT22;31884;52.538;13.820;2024-01-15T05:59:49;2.20;99.90
44843;DHT22;31884;52.538;13.820;2024-01-15T06:02:14;2.10;99.90
44843;DHT22;31884;52.538;13.820;2024-01-15T06:04:40;2.10;99.90
44843;DHT22;31884;52.538;13.820;2024-01-15T06:07:05;2.10;99.90
44843;DHT22;31884;52.538;13.820;2024-01-15T06:09:31;2.20;99.90
44843;DHT22;31884;52.538;13.820;2024-01-15T06:11:57;2.20;99.90
44843;DHT22;31884;52.538;13.820;2024-01-15T06:14:22;2.20;99.90
44843;DHT22;31884;52.538;13.820;2024-01-15T06:16:48;2.20;99.90
44843;DHT22;31884;52.538;13.820;2024-01-15T06:19:14;2.20;99.90
44843;DHT22;31884;52.538;13.820;2024-01-15T06:21:40;2.20;99.90
44843;DHT22;31884;52.538;13.820;2024-01-15T06:24:05;2.20;99.90
44843;DHT22;31884;52.538;13.820;2024-01-15T06:26:31;2.10;99.90
44843;DHT22;31884;52.538;13.820;2024-01-15T06:28:56;2.10;99.90
44843;DHT22;31884;52.538;13.820;2024-01-15T06:31:22;2.10;99.90
44843;DHT22;31884;52.538;13.820;2024-01-15T06:33:47;2.10;99.90
44843;DHT22;31884;52.538;13.820;2024-01-15T06:36:14;2.10;99.90
44843;DHT22;31884;52.538;13.820;2024-01-15T06:38:42;2.10;99.90
44843;DHT22;31884;52.538;13.820;2024-01-15T06:41:08;2.10;99.90
44843;DHT22;31884;52.538;13.820;2024-01-15T06:43:33;2.10;99.90
44843;DHT22;31884;52.538;13.820;2024-01-15T06:45:59;2.20;99.90
44843;DHT22;31884;52.538;13.820;2024-01-15T06:48:24;2.20;99.90
44843;DHT22;31884;52.538;13.820;2024-01-15T06:50:50;2.20;99.90
44843;DHT22;31884;52.538;13.820;2024-01-15T06:53:16;2.20;99.90
44843;DHT22;31884;52.538;13.820;2024-01-15T06:55:41;2.20;99.90
44843;DHT22;31884;52.538;13.820;2024-01-15T06:58:07;2.20;99.90
44843;DHT22;31884;52.538;13.820;2024-01-15T07:00:32;2.30;99.90
44843;DHT22;31884;52.538;13.820;2024-01-15T07:02:58;2.30;99.90
44843;DHT22;31884;52.538;13.820;2024-01-15T07:05:24;2.30;99.90
44843;DHT22;31884;52.538;13.820;2024-01-15T07:07:50;2.30;99.90
44843;DHT22;31884;52.538;13.820;2024-01-15T07:10:16;2.30;99.90
44843;DHT22;31884;52.538;13.820;2024-01-15T07:12:42;2.30;99.90
44843;DHT22;31884;52.538;13.820;2024-01-15T07:15:08;2.30;99.90
44843;DHT22;31884;52.538;13.820;2024-01-15T07:17:35;2.20;99.90
44843;DHT22;31884;52.538;13.820;2024-01-15T07:20:00;2.20;99.90
44843;DHT22;31884;52.538;13.820;2024-01-15T07:22:26;2.20;99.90
44843;DHT22;31884;52.538;13.820;2024-01-15T07:24:52;2.30;99.90
44843;DHT22;31884;52.538;13.820;2024-01-15T07:27:17;2.20;99.90
44843;DHT22;31884;52.538;13.820;2024-01-15T07:29:43;2.20;99.90
44843;DHT22;31884;52.538;13.820;2024-01-15T07:32:09;2.30;99.90
44843;DHT22;31884;52.538;13.820;2024-01-15T07:34:35;2.20;99.90
44843;DHT22;31884;52.538;13.820;2024-01-15T07:37:00;2.20;99.90
44843;DHT22;31884;52.538;13.820;2024-01-15T07:39:26;2.20;99.90
44843;DHT22;31884;52.538;13.820;2024-01-15T07:41:54;2.10;99.90
44843;DHT22;31884;52.538;13.820;2024-01-15T07:44:19;2.00;99.90
44843;DHT22;31884;52.538;13.820;2024-01-15T07:46:46;2.00;99.90
44843;DHT22;31884;52.538;13.820;2024-01-15T07:49:11;2.00;99.90
44843;DHT22;31884;52.538;13.820;2024-01-15T07:51:37;2.00;99.90
44843;DHT22;31884;52.538;13.820;2024-01-15T07:54:03;2.00;99.90
44843;DHT22;31884;52.538;13.820;2024-01-15T07:56:28;2.00;99.90
44843;DHT22;31884;52.538;13.820;2024-01-15T07:58:54;1.90;99.90
44843;DHT22;31884;52.538;13.820;2024-01-15T08:01:19;2.00;99.90
44843;DHT22;31884;52.538;13.820;2024-01-15T08:03:45;2.00;99.90
44843;DHT22;31884;52.538;13.820;2024-01-15T08:06:10;2.00;99.90
44843;DHT22;31884;52.538;13.820;2024-01-15T08:08:37;2.00;99.90
44843;DHT22;31884;52.538;13.820;2024-01-15T08:11:02;2.00;99.90
44843;DHT22;31884;52.538;13.820;2024-01-15T08:13:28;2.00;99.90
44843;DHT22;31884;52.538;13.820;2024-01-15T08:15:53;2.10;99.90
44843;DHT22;31884;52.538;13.820;2024-01-15T08:18:19;2.10;99.90
44843;DHT22;31884;52.538;13.820;2024-01-15T08:20:47;2.20;99.90
44843;DHT22;31884;52.538;13.820;2024-01-15T08:23:12;2.30;99.90
44843;DHT22;31884;52.538;13.820;2024-01-15T08:25:38;2.30;99.90
44843;DHT22;31884;52.538;13.820;2024-01-15T08:28:03;2.40;99.90
44843;DHT22;31884;52.538;13.820;2024-01-15T08:30:29;2.40;99.90
44843;DHT22;31884;52.538;13.820;2024-01-15T08:32:55;2.50;99.90
44843;DHT22;31884;52.538;13.820;2024-01-15T08:35:20;2.50;99.90
44843;DHT22;31884;52.538;13.820;2024-01-15T08:37:52;2.50;99.90
44843;DHT22;31884;52.538;13.820;2024-01-15T08:40:17;2.50;99.90
44843;DHT22;31884;52.538;13.820;2024-01-15T08:42:43;2.50;99.90
44843;DHT22;31884;52.538;13.820;2024-01-15T08:45:09;2.50;99.90
44843;DHT22;31884;52.538;13.820;2024-01-15T08:47:35;2.50;99.90
44843;DHT22;31884;52.538;13.820;2024-01-15T08:50:01;2.60;99.90
44843;DHT22;31884;52.538;13.820;2024-01-15T08:52:26;2.60;99.90
44843;DHT22;31884;52.538;13.820;2024-01-15T08:54:52;2.60;99.90
44843;DHT22;31884;52.538;13.820;2024-01-15T08:57:17;2.60;99.90
44843;DHT22;31884;52.538;13.820;2024-01-15T08:59:43;2.70;99.90
44843;DHT22;31884;52.538;13.820;2024-01-15T09:02:09;2.80;99.90
44843;DHT22;31884;52.538;13.820;2024-01-15T09:04:34;2.70;99.90
44843;DHT22;31884;52.538;13.820;2024-01-15T09:06:59;2.80;99.90
44843;DHT22;31884;52.538;13.820;2024-01-15T09:09:25;2.80;99.90
44843;DHT22;31884;52.538;13.820;2024-01-15T09:11:51;2.80;99.90
44843;DHT22;31884;52.538;13.820;2024-01-15T09:14:17;2.80;99.90
44843;DHT22;31884;52.538;13.820;2024-01-15T09:16:43;2.80;99.90
44843;DHT22;31884;52.538;13.820;2024-01-15T09:19:08;2.80;99.90
44843;DHT22;31884;52.538;13.820;2024-01-15T09:21:34;2.80;99.90
44843;DHT22;31884;52.538;13.820;2024-01-15T09:23:59;2.80;99.90
44843;DHT22;31884;52.538;13.820;2024-01-15T09:26:25;2.70;99.90
44843;DHT22;31884;52.538;13.820;2024-01-15T09:28:51;2.70;99.90
44843;DHT22;31884;52.538;13.820;2024-01-15T09:31:17;2.70;99.90
44843;DHT22;31884;52.538;13.820;2024-01-15T09:33:43;2.70;99.90
44843;DHT22;31884;52.538;13.820;2024-01-15T09:36:09;2.70;99.90
44843;DHT22;31884;52.538;13.820;2024-01-15T09:38:35;2.80;99.90
44843;DHT22;31884;52.538;13.820;2024-01-15T09:41:00;2.80;99.90
44843;DHT22;31884;52.538;13.820;2024-01-15T09:43:26;2.70;99.90
44843;DHT22;31884;52.538;13.820;2024-01-15T09:45:53;2.70;99.90
44843;DHT22;31884;52.538;13.820;2024-01-15T09:48:19;2.70;99.90
44843;DHT22;31884;52.538;13.820;2024-01-15T09:50:45;2.70;99.90
44843;DHT22;31884;52.538;13.820;2024-01-15T09:53:11;2.80;99.90
44843;DHT22;31884;52.538;13.820;2024-01-15T09:55:37;2.80;99.90
44843;DHT22;31884;52.538;13.820;2024-01-15T09:58:06;2.80;99.90
44843;DHT22;31884;52.538;13.820;2024-01-15T10:00:33;2.80;99.90
44843;DHT22;31884;52.538;13.820;2024-01-15T10:02:59;2.90;99.90
44843;DHT22;31884;52.538;13.820;2024-01-15T10:05:27;3.00;99.90
44843;DHT22;31884;52.538;13.820;2024-01-15T10:07:54;3.00;99.90
44843;DHT22;31884;52.538;13.820;2024-01-15T10:10:21;3.00;99.90
44843;DHT22;31884;52.538;13.820;2024-01-15T10:12:48;3.00;99.90
44843;DHT22;31884;52.538;13.820;2024-01-15T10:15:14;3.10;99.90
44843;DHT22;31884;52.538;13.820;2024-01-15T10:17:40;3.10;99.80
44843;DHT22;31884;52.538;13.820;2024-01-15T10:20:10;3.20;99.90
44843;DHT22;31884;52.538;13.820;2024-01-15T10:22:37;3.20;99.60
44843;DHT22;31884;52.538;13.820;2024-01-15T10:25:04;3.50;99.00
44843;DHT22;31884;52.538;13.820;2024-01-15T10:27:30;3.50;98.80
44843;DHT22;31884;52.538;13.820;2024-01-15T10:29:59;3.60;98.70
44843;DHT22;31884;52.538;13.820;2024-01-15T10:32:25;3.60;98.60
44843;DHT22;31884;52.538;13.820;2024-01-15T10:34:52;3.60;98.80
44843;DHT22;31884;52.538;13.820;2024-01-15T10:37:18;3.60;98.00
44843;DHT22;31884;52.538;13.820;2024-01-15T10:39:43;3.60;98.50
44843;DHT22;31884;52.538;13.820;2024-01-15T10:42:09;3.60;98.30
44843;DHT22;31884;52.538;13.820;2024-01-15T10:44:35;3.60;97.80
44843;DHT22;31884;52.538;13.820;2024-01-15T10:47:00;3.60;97.80
44843;DHT22;31884;52.538;13.820;2024-01-15T10:49:26;3.50;98.20
44843;DHT22;31884;52.538;13.820;2024-01-15T10:51:53;3.50;98.10
44843;DHT22;31884;52.538;13.820;2024-01-15T10:54:20;3.40;98.10
44843;DHT22;31884;52.538;13.820;2024-01-15T10:56:46;3.40;97.60
44843;DHT22;31884;52.538;13.820;2024-01-15T10:59:13;3.40;98.10
44843;DHT22;31884;52.538;13.820;2024-01-15T11:01:38;3.40;98.10
44843;DHT22;31884;52.538;13.820;2024-01-15T11:04:04;3.50;98.10
44843;DHT22;31884;52.538;13.820;2024-01-15T11:06:43;3.50;97.60
44843;DHT22;31884;52.538;13.820;2024-01-15T11:09:09;3.50;97.50
44843;DHT22;31884;52.538;13.820;2024-01-15T11:11:45;3.40;97.70
44843;DHT22;31884;52.538;13.820;2024-01-15T11:14:38;3.40;97.40
44843;DHT22;31884;52.538;13.820;2024-01-15T11:17:04;3.40;97.40
44843;DHT22;31884;52.538;13.820;2024-01-15T11:19:44;3.40;97.30
44843;DHT22;31884;52.538;13.820;2024-01-15T11:24:55;3.50;96.40
44843;DHT22;31884;52.538;13.820;2024-01-15T11:27:43;3.50;96.40
44843;DHT22;31884;52.538;13.820;2024-01-15T11:30:09;3.50;96.00
44843;DHT22;31884;52.538;13.820;2024-01-15T11:32:39;3.60;96.40
44843;DHT22;31884;52.538;13.820;2024-01-15T11:35:08;3.70;96.50
44843;DHT22;31884;52.538;13.820;2024-01-15T11:40:36;3.90;95.30
44843;DHT22;31884;52.538;13.820;2024-01-15T11:43:03;3.90;94.90
44843;DHT22;31884;52.538;13.820;2024-01-15T11:45:30;3.90;94.70
44843;DHT22;31884;52.538;13.820;2024-01-15T11:50:29;3.80;95.00
44843;DHT22;31884;52.538;13.820;2024-01-15T11:53:03;3.80;94.70
44843;DHT22;31884;52.538;13.820;2024-01-15T11:55:38;3.70;94.80
44843;DHT22;31884;52.538;13.820;2024-01-15T11:58:11;3.70;95.00
44843;DHT22;31884;52.538;13.820;2024-01-15T12:00:51;3.60;94.60
44843;DHT22;31884;52.538;13.820;2024-01-15T12:03:20;3.60;95.10
44843;DHT22;31884;52.538;13.820;2024-01-15T12:05:45;3.60;95.30
44843;DHT22;31884;52.538;13.820;2024-01-15T12:08:11;3.50;95.60
44843;DHT22;31884;52.538;13.820;2024-01-15T12:10:40;3.50;95.80
44843;DHT22;31884;52.538;13.820;2024-01-15T12:13:14;3.50;96.00
44843;DHT22;31884;52.538;13.820;2024-01-15T12:15:40;3.40;95.90
44843;DHT22;31884;52.538;13.820;2024-01-15T12:18:10;3.30;96.60
44843;DHT22;31884;52.538;13.820;2024-01-15T12:20:35;3.30;97.30
44843;DHT22;31884;52.538;13.820;2024-01-15T12:23:02;3.30;98.10
44843;DHT22;31884;52.538;13.820;2024-01-15T12:25:35;3.30;98.70
44843;DHT22;31884;52.538;13.820;2024-01-15T12:28:02;3.30;99.80
44843;DHT22;31884;52.538;13.820;2024-01-15T12:30:28;3.30;99.90
44843;DHT22;31884;52.538;13.820;2024-01-15T12:32:54;3.20;99.90
44843;DHT22;31884;52.538;13.820;2024-01-15T12:35:20;3.20;99.90
44843;DHT22;31884;52.538;13.820;2024-01-15T12:37:47;3.00;99.90
44843;DHT22;31884;52.538;13.820;2024-01-15T12:40:13;3.10;99.90
44843;DHT22;31884;52.538;13.820;2024-01-15T12:42:40;3.00;99.90
44843;DHT22;31884;52.538;13.820;2024-01-15T12:45:06;3.00;99.90
44843;DHT22;31884;52.538;13.820;2024-01-15T12:47:32;2.90;99.90
44843;DHT22;31884;52.538;13.820;2024-01-15T12:49:58;2.90;99.90
44843;DHT22;31884;52.538;13.820;2024-01-15T12:52:27;2.90;99.90
44843;DHT22;31884;52.538;13.820;2024-01-15T12:54:53;2.80;99.90
44843;DHT22;31884;52.538;13.820;2024-01-15T12:57:18;2.80;99.90
44843;DHT22;31884;52.538;13.820;2024-01-15T12:59:44;2.80;99.90
44843;DHT22;31884;52.538;13.820;2024-01-15T13:02:11;2.70;99.90
44843;DHT22;31884;52.538;13.820;2024-01-15T13:04:37;2.70;99.90
44843;DHT22;31884;52.538;13.820;2024-01-15T13:07:02;2.60;99.90
44843;DHT22;31884;52.538;13.820;2024-01-15T13:09:28;2.60;99.90
44843;DHT22;31884;52.538;13.820;2024-01-15T13:11:55;2.60;99.90
44843;DHT22;31884;52.538;13.820;2024-01-15T13:14:21;2.50;99.90
44843;DHT22;31884;52.538;13.820;2024-01-15T13:16:46;2.60;99.90
44843;DHT22;31884;52.538;13.820;2024-01-15T13:19:12;2.60;99.90
44843;DHT22;31884;52.538;13.820;2024-01-15T13:21:38;2.60;99.90
44843;DHT22;31884;52.538;13.820;2024-01-15T13:24:04;2.70;99.90
44843;DHT22;31884;52.538;13.820;2024-01-15T13:26:32;2.70;99.90
44843;DHT22;31884;52.538;13.820;2024-01-15T13:28:59;2.70;99.90
44843;DHT22;31884;52.538;13.820;2024-01-15T13:31:24;2.70;99.90
44843;DHT22;31884;52.538;13.820;2024-01-15T13:33:50;2.80;99.90
44843;DHT22;31884;52.538;13.820;2024-01-15T13:36:15;2.80;99.90
44843;DHT22;31884;52.538;13.820;2024-01-15T13:38:40;2.90;99.90
44843;DHT22;31884;52.538;13.820;2024-01-15T13:41:08;2.80;99.90
44843;DHT22;31884;52.538;13.820;2024-01-15T13:43:33;2.80;99.90
44843;DHT22;31884;52.538;13.820;2024-01-15T13:45:59;2.80;99.90
44843;DHT22;31884;52.538;13.820;2024-01-15T13:48:25;2.80;99.90
44843;DHT22;31884;52.538;13.820;2024-01-15T13:50:52;2.90;99.90
44843;DHT22;31884;52.538;13.820;2024-01-15T13:53:17;2.90;99.90
44843;DHT22;31884;52.538;13.820;2024-01-15T13:55:44;2.90;99.90
44843;DHT22;31884;52.538;13.820;2024-01-15T13:58:10;2.80;99.90
44843;DHT22;31884;52.538;13.820;2024-01-15T14:00:35;2.80;99.90
44843;DHT22;31884;52.538;13.820;2024-01-15T14:03:01;2.80;99.90
44843;DHT22;31884;52.538;13.820;2024-01-15T14:05:26;2.80;99.90
44843;DHT22;31884;52.538;13.820;2024-01-15T14:07:52;2.80;99.90
44843;DHT22;31884;52.538;13.820;2024-01-15T14:10:17;2.80;99.90
44843;DHT22;31884;52.538;13.820;2024-01-15T14:12:43;2.80;99.90
44843;DHT22;31884;52.538;13.820;2024-01-15T14:15:08;2.80;99.90
44843;DHT22;31884;52.538;13.820;2024-01-15T14:17:34;2.80;99.90
44843;DHT22;31884;52.538;13.820;2024-01-15T14:20:00;2.80;99.90
44843;DHT22;31884;52.538;13.820;2024-01-15T14:22:25;2.80;99.90
44843;DHT22;31884;52.538;13.820;2024-01-15T14:24:51;2.80;99.90
44843;DHT22;31884;52.538;13.820;2024-01-15T14:27:16;2.80;99.90
44843;DHT22;31884;52.538;13.820;2024-01-15T14:29:42;2.70;99.90
44843;DHT22;31884;52.538;13.820;2024-01-15T14:32:07;2.70;99.90
44843;DHT22;31884;52.538;13.820;2024-01-15T14:34:33;2.70;99.90
44843;DHT22;31884;52.538;13.820;2024-01-15T14:36:58;2.70;99.90
44843;DHT22;31884;52.538;13.820;2024-01-15T14:39:24;2.60;99.90
44843;DHT22;31884;52.538;13.820;2024-01-15T14:41:50;2.60;99.90
44843;DHT22;31884;52.538;13.820;2024-01-15T14:44:16;2.60;99.90
44843;DHT22;31884;52.538;13.820;2024-01-15T14:46:42;2.60;99.90
44843;DHT22;31884;52.538;13.820;2024-01-15T14:49:07;2.60;99.90
44843;DHT22;31884;52.538;13.820;2024-01-15T14:51:33;2.60;99.90
44843;DHT22;31884;52.538;13.820;2024-01-15T14:53:59;2.60;99.90
44843;DHT22;31884;52.538;13.820;2024-01-15T14:56:25;2.60;99.90
44843;DHT22;31884;52.538;13.820;2024-01-15T14:58:50;2.60;99.90
44843;DHT22;31884;52.538;13.820;2024-01-15T15:01:16;2.50;99.90
44843;DHT22;31884;52.538;13.820;2024-01-15T15:03:41;2.50;99.90
44843;DHT22;31884;52.538;13.820;2024-01-15T15:06:07;2.50;99.90
44843;DHT22;31884;52.538;13.820;2024-01-15T15:08:33;2.50;99.90
44843;DHT22;31884;52.538;13.820;2024-01-15T15:10:59;2.50;99.90
44843;DHT22;31884;52.538;13.820;2024-01-15T15:13:25;2.50;99.90
44843;DHT22;31884;52.538;13.820;2024-01-15T15:15:51;2.50;99.90
44843;DHT22;31884;52.538;13.820;2024-01-15T15:18:17;2.40;99.90
44843;DHT22;31884;52.538;13.820;2024-01-15T15:20:43;2.40;99.90
44843;DHT22;31884;52.538;13.820;2024-01-15T15:23:08;2.50;99.90
44843;DHT22;31884;52.538;13.820;2024-01-15T15:25:35;2.40;99.90
44843;DHT22;31884;52.538;13.820;2024-01-15T15:28:01;2.40;99.90
44843;DHT22;31884;52.538;13.820;2024-01-15T15:30:27;2.40;99.90
44843;DHT22;31884;52.538;13.820;2024-01-15T15:32:52;2.40;99.90